createdAt,value
2023-02-08T00:04:55.823Z,73.70
2023-02-08T00:09:59.018Z,65.90
2023-02-08T00:15:02.622Z,56.03
2023-02-08T00:20:07.301Z,55.57
2023-02-08T00:25:11.322Z,94.93
2023-02-08T00:30:14.858Z,54.63
2023-02-08T00:35:18.180Z,79.20
2023-02-08T00:40:21.555Z,68.90
2023-02-08T00:45:25.421Z,62.43
2023-02-08T00:50:28.786Z,62.73
2023-02-08T00:55:31.780Z,63.40
2023-02-08T01:00:35.432Z,68.60
2023-02-08T01:05:39.346Z,54.40
2023-02-08T01:10:43.026Z,60.33
2023-02-08T01:15:46.609Z,62.00
2023-02-08T01:20:50.060Z,63.00
2023-02-08T01:25:53.358Z,59.13
2023-02-08T01:30:57.292Z,53.07
2023-02-08T01:36:00.584Z,49.00
2023-02-08T01:41:05.093Z,58.33
2023-02-08T01:46:08.357Z,56.73
2023-02-08T01:51:18.111Z,48.93
2023-02-08T01:56:30.417Z,54.97
2023-02-08T02:01:34.311Z,53.17
2023-02-08T02:06:46.409Z,55.40
2023-02-08T02:11:50.654Z,51.33
2023-02-08T02:16:53.997Z,58.57
2023-02-08T02:22:13.398Z,57.97
2023-02-08T02:27:41.605Z,54.67
2023-02-08T02:33:00.178Z,45.30
2023-02-08T02:38:13.215Z,31.80
2023-02-08T02:43:43.563Z,42.03
2023-02-08T02:49:01.848Z,40.93
2023-02-08T02:54:24.115Z,36.83
2023-02-08T02:59:28.924Z,35.80
2023-02-08T03:04:35.359Z,30.03
2023-02-08T03:10:02.290Z,27.80
2023-02-08T03:15:20.685Z,31.60
2023-02-08T03:20:47.477Z,28.57
2023-02-08T03:25:54.381Z,25.93
2023-02-08T03:31:15.737Z,23.27
2023-02-08T03:36:30.238Z,27.00
2023-02-08T03:41:38.327Z,21.57
2023-02-08T03:46:49.181Z,26.23
2023-02-08T03:51:56.348Z,23.77
2023-02-08T03:57:14.332Z,26.53
2023-02-08T04:02:21.629Z,24.63
2023-02-08T04:07:25.108Z,26.93
2023-02-08T04:12:28.381Z,37.30
2023-02-08T04:17:32.680Z,28.73
2023-02-08T04:22:36.101Z,27.47
2023-02-08T04:27:39.337Z,30.60
2023-02-08T04:32:42.545Z,33.53
2023-02-08T04:37:45.890Z,31.80
2023-02-08T04:42:49.126Z,48.03
2023-02-08T04:47:52.384Z,41.27
2023-02-08T04:52:55.700Z,33.83
2023-02-08T04:57:58.884Z,38.03
2023-02-08T05:03:02.168Z,37.27
2023-02-08T05:08:06.028Z,40.77
2023-02-08T05:13:09.259Z,39.93
2023-02-08T05:18:12.540Z,41.80
2023-02-08T05:23:15.897Z,43.27
2023-02-08T05:28:20.240Z,41.47
2023-02-08T05:33:24.049Z,39.20
2023-02-08T05:38:27.657Z,45.90
2023-02-08T05:43:31.639Z,42.07
2023-02-08T05:48:35.480Z,46.90
2023-02-08T05:53:39.167Z,43.80
2023-02-08T05:58:42.429Z,39.17
2023-02-08T06:03:45.673Z,41.60
2023-02-08T06:08:49.229Z,38.03
2023-02-08T06:13:52.717Z,40.87
2023-02-08T06:18:56.152Z,32.83
2023-02-08T06:23:59.426Z,36.33
2023-02-08T06:29:02.948Z,31.87
2023-02-08T06:34:06.838Z,36.23
2023-02-08T06:39:10.397Z,26.13
2023-02-08T06:44:14.014Z,30.07
2023-02-08T06:49:17.288Z,25.77
2023-02-08T06:54:20.948Z,28.43
2023-02-08T06:59:24.237Z,27.23
2023-02-08T07:04:27.471Z,33.93
2023-02-08T07:09:30.796Z,27.87
2023-02-08T07:14:36.161Z,27.93
2023-02-08T07:19:39.999Z,27.77
2023-02-08T07:24:43.909Z,29.10
2023-02-08T07:29:47.193Z,24.93
2023-02-08T07:34:50.497Z,27.60
2023-02-08T07:39:53.985Z,27.20
2023-02-08T07:44:57.604Z,31.17
2023-02-08T07:50:00.906Z,32.60
2023-02-08T07:55:04.225Z,38.40
2023-02-08T08:00:08.047Z,56.37
2023-02-08T08:05:11.923Z,51.10
2023-02-08T08:10:15.354Z,40.20
2023-02-08T08:15:18.758Z,42.73
2023-02-08T08:20:22.445Z,36.73
2023-02-08T08:25:25.700Z,36.67
2023-02-08T08:30:29.331Z,33.83
2023-02-08T08:35:32.665Z,33.93
2023-02-08T08:40:36.906Z,33.00
2023-02-08T08:45:40.295Z,23.27
2023-02-08T08:50:43.617Z,29.33
2023-02-08T08:55:47.707Z,26.13
2023-02-08T09:00:50.929Z,29.30
2023-02-08T09:05:54.364Z,29.47
2023-02-08T09:10:58.112Z,25.67
2023-02-08T09:16:09.713Z,32.23
2023-02-08T09:21:17.631Z,31.30
2023-02-08T09:26:21.089Z,30.57
2023-02-08T09:31:33.331Z,26.27
2023-02-08T09:36:39.857Z,29.40
2023-02-08T09:42:21.232Z,25.60
2023-02-08T09:47:36.158Z,32.67
2023-02-08T09:52:42.243Z,33.53
2023-02-08T09:57:46.336Z,32.93
2023-02-08T10:02:50.456Z,32.43
2023-02-08T10:07:55.198Z,26.73
2023-02-08T10:13:07.492Z,30.57
2023-02-08T10:18:39.116Z,36.53
2023-02-08T10:24:04.298Z,29.93
2023-02-08T10:29:32.625Z,38.40
2023-02-08T10:34:46.303Z,40.97
2023-02-08T10:39:51.182Z,36.70
2023-02-08T10:45:01.218Z,31.30
2023-02-08T10:50:35.332Z,28.57
2023-02-08T10:55:43.321Z,36.23
2023-02-08T11:00:48.409Z,30.40
2023-02-08T11:05:51.975Z,35.33
2023-02-08T11:11:10.139Z,36.73
2023-02-08T11:16:25.565Z,35.13
2023-02-08T11:21:40.583Z,35.43
2023-02-08T11:26:44.309Z,39.67
2023-02-08T11:31:58.570Z,41.33
2023-02-08T11:37:27.065Z,41.37
2023-02-08T11:42:41.232Z,43.57
2023-02-08T11:47:48.725Z,39.30
2023-02-08T11:53:28.399Z,45.90
2023-02-08T11:58:32.513Z,38.60
2023-02-08T12:03:41.025Z,36.03
2023-02-08T12:08:44.656Z,35.97
2023-02-08T12:14:02.682Z,29.73
2023-02-08T12:19:32.122Z,33.37
2023-02-08T12:24:56.381Z,36.30
2023-02-08T12:30:33.208Z,35.47
2023-02-08T12:36:04.060Z,37.63
2023-02-08T12:41:39.320Z,31.37
2023-02-08T12:47:37.807Z,30.63
2023-02-08T12:52:50.796Z,36.13
2023-02-08T12:57:59.830Z,40.40
2023-02-08T13:03:23.295Z,38.37
2023-02-08T13:08:50.855Z,37.97
2023-02-08T13:14:12.356Z,36.13
2023-02-08T13:19:36.728Z,37.87
2023-02-08T13:24:43.914Z,31.97
2023-02-08T13:29:49.137Z,33.73
2023-02-08T13:35:27.606Z,36.17
2023-02-08T13:40:35.165Z,31.17
2023-02-08T13:45:45.456Z,26.90
2023-02-08T13:50:53.857Z,27.70
2023-02-08T13:56:02.130Z,31.50
2023-02-08T14:01:28.197Z,27.70
2023-02-08T14:06:32.596Z,28.33
2023-02-08T14:11:50.416Z,27.40
2023-02-08T14:17:18.216Z,31.83
2023-02-08T14:22:21.656Z,35.10
2023-02-08T14:27:42.774Z,34.90
2023-02-08T14:33:02.128Z,34.33
2023-02-08T14:38:20.650Z,36.47
2023-02-08T14:43:34.350Z,29.67
2023-02-08T14:48:50.405Z,29.23
2023-02-08T14:53:57.083Z,22.83
2023-02-08T14:59:07.308Z,23.40
2023-02-08T15:04:10.996Z,27.57
2023-02-08T15:09:19.641Z,28.17
2023-02-08T15:14:23.000Z,34.13
2023-02-08T15:19:38.032Z,24.00
2023-02-08T15:24:51.061Z,33.77
2023-02-08T15:29:54.624Z,28.70
2023-02-08T15:35:03.756Z,31.23
2023-02-08T15:40:07.375Z,32.40
2023-02-08T15:45:30.936Z,32.47
2023-02-08T15:50:35.007Z,27.77
2023-02-08T15:55:47.340Z,31.70
2023-02-08T16:00:50.997Z,31.23
2023-02-08T16:06:02.694Z,34.73
2023-02-08T16:11:22.553Z,33.73
2023-02-08T16:16:36.149Z,46.43
2023-02-08T16:21:43.331Z,71.17
2023-02-08T16:26:50.302Z,49.60
2023-02-08T16:32:08.905Z,62.00
2023-02-08T16:37:30.851Z,64.13
2023-02-08T16:42:44.653Z,88.33
2023-02-08T16:48:06.931Z,90.90
2023-02-08T16:53:16.492Z,84.87
2023-02-08T16:58:19.998Z,54.73
2023-02-08T17:03:23.777Z,47.83
2023-02-08T17:08:27.602Z,63.30
2023-02-08T17:13:31.538Z,55.60
2023-02-08T17:18:35.108Z,52.17
2023-02-08T17:23:39.801Z,75.23
2023-02-08T17:28:45.051Z,62.57
2023-02-08T17:33:50.627Z,83.13
2023-02-08T17:38:55.237Z,51.10
2023-02-08T17:44:02.371Z,60.63
2023-02-08T17:49:07.778Z,48.70
2023-02-08T17:54:13.484Z,79.73
2023-02-08T17:59:17.842Z,97.53
2023-02-08T18:04:22.500Z,84.87
2023-02-08T18:09:27.902Z,85.70
2023-02-08T18:14:33.876Z,79.50
2023-02-08T18:19:40.711Z,86.93
2023-02-08T18:24:45.425Z,66.20
2023-02-08T18:29:50.192Z,54.73
2023-02-08T18:35:05.128Z,57.00
2023-02-08T18:40:12.547Z,43.30
2023-02-08T18:45:19.734Z,51.33
2023-02-08T18:50:24.378Z,56.37
2023-02-08T18:55:29.924Z,52.93
2023-02-08T19:00:34.891Z,67.53
2023-02-08T19:05:42.435Z,73.27
2023-02-08T19:10:49.805Z,64.87
2023-02-08T19:15:55.699Z,56.50
2023-02-08T19:21:10.075Z,60.57
2023-02-08T19:26:26.722Z,55.40
2023-02-08T19:31:33.201Z,49.90
2023-02-08T19:36:43.210Z,61.63
2023-02-08T19:41:48.220Z,61.33
2023-02-08T19:46:57.454Z,64.87
2023-02-08T19:52:04.415Z,61.97
2023-02-08T19:57:12.789Z,59.33
2023-02-08T20:02:20.931Z,51.43
2023-02-08T20:07:27.308Z,43.13
2023-02-08T20:12:32.784Z,49.30
2023-02-08T20:17:40.515Z,51.50
2023-02-08T20:22:47.635Z,64.00
2023-02-08T20:27:54.784Z,57.90
2023-02-08T20:33:01.345Z,51.70
2023-02-08T20:38:06.381Z,62.43
2023-02-08T20:43:15.825Z,47.13
2023-02-08T20:48:24.441Z,75.17
2023-02-08T20:53:29.623Z,60.47
2023-02-08T20:58:33.727Z,67.63
2023-02-08T21:03:38.654Z,60.03
2023-02-08T21:08:44.533Z,67.57
2023-02-08T21:13:49.126Z,69.93
2023-02-08T21:18:54.224Z,60.87
2023-02-08T21:23:58.696Z,49.50
2023-02-08T21:29:06.926Z,59.83
2023-02-08T21:34:12.578Z,50.33
2023-02-08T21:39:15.875Z,46.47
2023-02-08T21:44:20.205Z,53.10
2023-02-08T21:49:42.796Z,57.10
2023-02-08T21:54:53.411Z,55.73
2023-02-08T22:00:05.695Z,56.93
2023-02-08T22:05:11.704Z,51.27
2023-02-08T22:10:18.433Z,41.97
2023-02-08T22:15:25.116Z,59.33
2023-02-08T22:20:32.046Z,55.30
2023-02-08T22:25:36.019Z,47.67
2023-02-08T22:30:39.715Z,46.63
2023-02-08T22:35:43.132Z,49.53
2023-02-08T22:40:47.255Z,43.53
2023-02-08T22:45:58.713Z,43.27
2023-02-08T22:51:14.901Z,57.97
2023-02-08T22:56:19.443Z,46.53
2023-02-08T23:01:22.672Z,50.20
2023-02-08T23:06:25.966Z,51.17
2023-02-08T23:11:29.473Z,61.30
2023-02-08T23:16:33.073Z,52.63
2023-02-08T23:21:37.989Z,52.03
2023-02-08T23:26:42.959Z,42.70
2023-02-08T23:31:46.614Z,61.70
2023-02-08T23:36:50.288Z,43.63
2023-02-08T23:41:56.468Z,40.27
2023-02-08T23:46:59.895Z,43.33
2023-02-08T23:52:03.181Z,42.53
2023-02-08T23:57:06.577Z,41.93
